createdAt,value
2023-03-23T15:57:58.056Z,23.20
2023-03-23T15:59:01.344Z,27.80
2023-03-23T16:00:04.788Z,32.70
2023-03-23T16:01:15.406Z,27.50
2023-03-23T16:02:21.721Z,28.50
2023-03-23T16:03:28.886Z,25.00
2023-03-23T16:04:32.489Z,24.60
2023-03-23T16:05:36.216Z,24.30
2023-03-23T16:06:39.422Z,31.80
2023-03-23T16:07:42.012Z,26.30
2023-03-23T16:08:44.325Z,27.00
2023-03-23T16:09:49.573Z,26.40
2023-03-23T16:10:52.350Z,30.60
2023-03-23T16:11:55.698Z,28.36
2023-03-23T16:12:58.023Z,26.50
2023-03-23T16:14:01.410Z,25.80
2023-03-23T16:15:04.803Z,28.50
2023-03-23T16:16:20.451Z,33.20
2023-03-23T16:17:22.912Z,29.30
2023-03-23T16:18:25.385Z,27.50
2023-03-23T16:19:28.922Z,30.90
2023-03-23T16:20:33.712Z,29.70
2023-03-23T16:21:36.680Z,31.40
2023-03-23T16:22:40.782Z,24.50
2023-03-23T16:23:45.463Z,30.36
2023-03-23T16:24:47.947Z,30.10
2023-03-23T16:25:50.914Z,30.30
2023-03-23T16:26:53.352Z,26.70
2023-03-23T16:27:57.186Z,27.50
2023-03-23T16:29:12.694Z,28.50
2023-03-23T16:30:25.965Z,30.40
2023-03-23T16:31:28.567Z,29.40
2023-03-23T16:32:30.861Z,30.20
2023-03-23T16:33:33.486Z,28.80
2023-03-23T16:34:36.501Z,29.90
2023-03-23T16:35:39.248Z,26.91
2023-03-23T16:36:42.265Z,31.00
2023-03-23T16:37:50.536Z,32.30
2023-03-23T16:38:54.666Z,36.40
2023-03-23T16:39:57.684Z,32.10
2023-03-23T16:41:00.159Z,9.40
2023-03-23T16:42:03.940Z,33.00
2023-03-23T16:43:09.309Z,30.90
2023-03-23T16:44:11.431Z,31.10
2023-03-23T16:45:15.525Z,34.10
2023-03-23T16:46:18.832Z,32.80
2023-03-23T16:47:24.498Z,32.10
2023-03-23T16:48:27.246Z,34.80
2023-03-23T16:49:29.793Z,33.80
2023-03-23T16:50:33.293Z,30.00
2023-03-23T16:51:36.658Z,28.50
2023-03-23T16:52:46.204Z,32.80
2023-03-23T16:53:46.466Z,29.10
2023-03-23T16:54:49.688Z,34.30
2023-03-23T16:55:52.516Z,35.10
2023-03-23T16:56:55.166Z,28.91
2023-03-23T16:58:12.896Z,32.20
2023-03-23T16:59:02.477Z,35.20
2023-03-23T17:00:08.395Z,33.20
2023-03-23T17:01:11.139Z,32.60
2023-03-23T17:02:13.740Z,34.09
2023-03-23T17:03:18.993Z,34.50
2023-03-23T17:04:21.186Z,34.40
2023-03-23T17:05:27.177Z,38.67
2023-03-23T17:06:30.706Z,43.40
2023-03-23T17:07:32.932Z,38.40
2023-03-23T17:08:36.386Z,42.00
2023-03-23T17:09:41.058Z,44.60
2023-03-23T17:10:44.733Z,41.90
2023-03-23T17:11:47.500Z,39.80
2023-03-23T17:12:49.786Z,45.50
2023-03-23T17:13:52.346Z,44.10
2023-03-23T17:14:54.628Z,39.70
2023-03-23T17:15:56.853Z,40.60
2023-03-23T17:17:00.243Z,39.60
2023-03-23T17:18:03.817Z,45.70
2023-03-23T17:19:07.255Z,35.90
2023-03-23T17:20:11.463Z,43.80
2023-03-23T17:21:13.830Z,42.60
2023-03-23T17:22:17.327Z,39.40
2023-03-23T17:23:20.267Z,36.80
2023-03-23T17:24:22.759Z,43.55
2023-03-23T17:25:25.884Z,43.20
2023-03-23T17:26:28.179Z,45.30
2023-03-23T17:27:30.607Z,42.90
2023-03-23T17:28:33.921Z,44.30
2023-03-23T17:29:36.332Z,43.10
2023-03-23T17:30:45.358Z,45.30
2023-03-23T17:31:49.174Z,39.50
2023-03-23T17:32:54.067Z,38.20
2023-03-23T17:33:57.833Z,40.60
2023-03-23T17:35:01.283Z,38.00
2023-03-23T17:36:04.043Z,36.50
2023-03-23T17:37:07.267Z,37.00
2023-03-23T17:38:10.092Z,30.70
2023-03-23T17:39:13.308Z,25.00
2023-03-23T17:40:20.112Z,36.10
2023-03-23T17:41:24.078Z,34.00
2023-03-23T17:42:26.596Z,34.00
2023-03-23T17:43:29.452Z,35.70
2023-03-23T17:44:31.974Z,31.27
2023-03-23T17:45:35.518Z,33.90
2023-03-23T17:46:38.302Z,34.90
2023-03-23T17:47:40.750Z,33.80
2023-03-23T17:48:46.231Z,33.50
2023-03-23T17:49:48.701Z,34.90
2023-03-23T17:50:54.862Z,28.30
2023-03-23T17:51:58.585Z,35.40
2023-03-23T17:53:02.072Z,36.60
2023-03-23T17:54:05.325Z,28.70
2023-03-23T17:55:08.544Z,34.10
2023-03-23T17:56:13.281Z,35.90
2023-03-23T17:57:17.206Z,31.10
2023-03-23T17:58:20.853Z,39.30
2023-03-23T17:59:26.753Z,30.90
2023-03-23T18:00:29.347Z,39.70
2023-03-23T18:01:34.006Z,33.30
2023-03-23T18:02:37.740Z,34.90
2023-03-23T18:04:52.800Z,35.00
2023-03-23T18:06:01.595Z,35.90
2023-03-23T18:07:04.080Z,35.00
2023-03-23T18:08:07.889Z,37.50
2023-03-23T18:09:10.527Z,36.80
2023-03-23T18:10:15.678Z,38.60
2023-03-23T18:11:18.598Z,38.00
2023-03-23T18:12:20.996Z,34.64
2023-03-23T18:13:26.119Z,39.20
2023-03-23T18:14:28.526Z,37.30
2023-03-23T18:15:33.023Z,43.60
2023-03-23T18:16:36.363Z,41.60
2023-03-23T18:17:39.802Z,37.50
2023-03-23T18:18:42.615Z,44.00
2023-03-23T18:19:47.098Z,39.60
2023-03-23T18:21:00.521Z,43.00
2023-03-23T18:22:02.753Z,42.20
2023-03-23T18:23:06.730Z,43.30
2023-03-23T18:24:10.338Z,44.90
2023-03-23T18:25:13.130Z,41.20
2023-03-23T18:26:17.884Z,43.90
2023-03-23T18:27:20.533Z,48.80
2023-03-23T18:28:24.902Z,47.45
2023-03-23T18:29:27.237Z,48.40
2023-03-23T18:30:29.997Z,44.70
2023-03-23T18:31:32.395Z,49.40
2023-03-23T18:32:40.066Z,46.80
2023-03-23T18:33:46.652Z,44.80
2023-03-23T18:34:49.946Z,45.90
2023-03-23T18:36:00.177Z,42.70
2023-03-23T18:37:04.369Z,45.10
2023-03-23T18:38:06.770Z,43.50
2023-03-23T18:39:14.454Z,46.60
2023-03-23T18:40:19.024Z,45.70
2023-03-23T18:41:21.370Z,40.50
2023-03-23T18:42:24.242Z,43.60
2023-03-23T18:43:27.637Z,45.70
2023-03-23T18:44:30.358Z,42.60
2023-03-23T18:45:33.127Z,47.70
2023-03-23T18:46:37.743Z,46.70
2023-03-23T18:47:40.875Z,43.70
2023-03-23T18:48:43.288Z,47.82
2023-03-23T18:49:47.955Z,41.60
2023-03-23T18:50:53.832Z,44.20
2023-03-23T18:51:57.685Z,39.60
2023-03-23T18:53:01.151Z,40.10
2023-03-23T18:54:04.447Z,45.00
2023-03-23T18:55:07.966Z,28.20
2023-03-23T18:56:16.154Z,42.50
2023-03-23T18:57:20.876Z,39.00
2023-03-23T18:58:23.254Z,41.40
2023-03-23T18:59:27.824Z,35.50
2023-03-23T19:00:30.322Z,41.40
2023-03-23T19:01:33.464Z,41.50
2023-03-23T19:02:38.337Z,33.82
2023-03-23T19:03:42.087Z,47.30
2023-03-23T19:06:01.309Z,42.30
2023-03-23T19:07:03.907Z,38.80
2023-03-23T19:08:07.650Z,41.40
2023-03-23T19:09:10.038Z,39.40
2023-03-23T19:10:13.592Z,39.09
2023-03-23T19:11:17.237Z,38.40
2023-03-23T19:12:22.414Z,36.80
2023-03-23T19:13:25.831Z,42.30
2023-03-23T19:14:28.549Z,41.70
2023-03-23T19:15:30.993Z,41.36
2023-03-23T19:16:35.673Z,39.90
2023-03-23T19:17:40.257Z,36.80
2023-03-23T19:18:43.760Z,45.20
2023-03-23T19:19:46.174Z,35.80
2023-03-23T19:21:55.930Z,41.20
2023-03-23T19:22:59.300Z,43.30
2023-03-23T19:24:02.372Z,42.20
2023-03-23T19:25:07.229Z,43.00
2023-03-23T19:26:13.669Z,40.10
2023-03-23T19:27:17.358Z,45.40
2023-03-23T19:29:27.362Z,40.50
2023-03-23T19:30:31.344Z,44.90
2023-03-23T19:31:35.026Z,47.50
2023-03-23T19:32:38.226Z,48.20
2023-03-23T19:33:40.483Z,42.55
2023-03-23T19:34:43.482Z,45.40
2023-03-23T19:35:50.637Z,46.70
2023-03-23T19:37:03.314Z,49.30
2023-03-23T19:38:00.107Z,42.80
2023-03-23T19:39:04.300Z,40.30
2023-03-23T19:40:24.745Z,45.50
2023-03-23T19:41:14.060Z,48.20
2023-03-23T19:42:19.614Z,47.10
2023-03-23T19:43:22.619Z,48.20
2023-03-23T19:44:25.779Z,40.30
2023-03-23T19:45:28.807Z,42.80
2023-03-23T19:46:32.875Z,44.90
2023-03-23T19:47:35.741Z,47.10
2023-03-23T19:48:39.984Z,37.45
2023-03-23T19:49:42.906Z,44.90
2023-03-23T19:50:49.212Z,48.09
2023-03-23T19:52:08.340Z,46.20
2023-03-23T19:52:59.538Z,50.20
2023-03-23T19:54:03.181Z,38.80
2023-03-23T19:55:06.863Z,49.50
2023-03-23T19:56:15.018Z,45.80
2023-03-23T19:57:17.376Z,44.80
2023-03-23T19:58:20.900Z,44.90
2023-03-23T19:59:23.980Z,49.60
2023-03-23T20:00:29.504Z,47.70
2023-03-23T20:01:32.185Z,46.30
2023-03-23T20:02:38.927Z,50.10
2023-03-23T20:03:42.433Z,47.90
2023-03-23T20:04:46.199Z,48.10
2023-03-23T20:05:49.507Z,44.40
2023-03-23T20:06:52.781Z,48.10
2023-03-23T20:07:55.462Z,45.90
2023-03-23T20:09:00.058Z,52.27
2023-03-23T20:10:02.471Z,46.80
2023-03-23T20:11:08.001Z,43.60
2023-03-23T20:12:10.293Z,52.60
2023-03-23T20:13:13.227Z,53.00
2023-03-23T20:14:16.044Z,56.82
2023-03-23T20:15:18.471Z,48.45
2023-03-23T20:16:21.856Z,42.40
2023-03-23T20:17:26.330Z,48.20
2023-03-23T20:18:29.884Z,47.50
2023-03-23T20:19:33.065Z,48.80
2023-03-23T20:20:35.702Z,51.64
2023-03-23T20:21:39.158Z,52.70
2023-03-23T20:22:43.239Z,50.30
2023-03-23T20:23:48.849Z,54.80
2023-03-23T20:24:51.962Z,42.90
2023-03-23T20:26:00.493Z,55.50
2023-03-23T20:27:03.363Z,48.30
2023-03-23T20:28:06.216Z,52.80
2023-03-23T20:29:09.291Z,51.40
2023-03-23T20:30:13.702Z,49.30
2023-03-23T20:31:24.270Z,55.50
2023-03-23T20:32:29.858Z,43.70
2023-03-23T20:33:34.229Z,50.80
2023-03-23T20:34:38.513Z,50.70
2023-03-23T20:35:40.805Z,52.80
2023-03-23T20:36:45.885Z,45.80
2023-03-23T20:37:51.049Z,53.60
2023-03-23T20:38:53.390Z,50.40
2023-03-23T20:39:55.732Z,51.40
2023-03-23T20:40:59.106Z,50.40
2023-03-23T20:42:05.712Z,51.40
2023-03-23T20:43:10.722Z,49.10
2023-03-23T20:44:14.905Z,56.40
2023-03-23T20:45:19.540Z,49.20
2023-03-23T20:46:22.956Z,50.90
2023-03-23T20:47:27.159Z,50.70
2023-03-23T20:48:34.115Z,56.20
2023-03-23T20:49:37.823Z,50.40
2023-03-23T20:50:41.876Z,57.40
2023-03-23T20:51:46.736Z,48.10
2023-03-23T20:52:50.251Z,54.50
2023-03-23T20:53:52.653Z,54.20
2023-03-23T20:54:55.714Z,50.70
2023-03-23T20:56:01.344Z,47.50
2023-03-23T20:57:04.126Z,53.80
2023-03-23T20:58:07.942Z,48.55
2023-03-23T20:59:10.612Z,46.60
2023-03-23T21:00:17.312Z,53.20
2023-03-23T21:01:22.021Z,54.10
2023-03-23T21:02:25.965Z,55.50
2023-03-23T21:03:31.752Z,53.00
2023-03-23T21:04:36.092Z,41.80
2023-03-23T21:05:42.169Z,49.00
2023-03-23T21:06:46.367Z,50.50
2023-03-23T21:07:50.334Z,52.90
2023-03-23T21:08:52.842Z,49.50
2023-03-23T21:09:56.034Z,13.00
2023-03-23T21:10:59.184Z,56.70
2023-03-23T21:12:06.860Z,52.30
2023-03-23T21:13:11.821Z,52.90
2023-03-23T21:14:15.985Z,54.70
2023-03-23T21:15:19.365Z,52.80
2023-03-23T21:16:24.136Z,50.60
2023-03-23T21:17:27.059Z,53.20
2023-03-23T21:18:31.678Z,55.00
2023-03-23T21:19:34.764Z,58.40
2023-03-23T21:20:38.073Z,55.60
2023-03-23T21:21:55.923Z,59.20
2023-03-23T21:22:47.683Z,55.30
2023-03-23T21:23:52.049Z,54.10
2023-03-23T21:24:54.679Z,53.60
2023-03-23T21:26:02.972Z,55.00
2023-03-23T21:27:06.962Z,57.10
2023-03-23T21:28:10.398Z,56.00
2023-03-23T21:29:15.674Z,45.50
2023-03-23T21:30:20.392Z,50.20
2023-03-23T21:31:22.729Z,56.80
2023-03-23T21:32:26.979Z,56.40
2023-03-23T21:33:29.170Z,53.10
2023-03-23T21:34:31.397Z,56.20
2023-03-23T21:35:34.882Z,58.20
2023-03-23T21:36:37.911Z,57.00
2023-03-23T21:37:42.144Z,57.80
2023-03-23T21:38:45.552Z,52.90
2023-03-23T21:39:47.858Z,54.30
2023-03-23T21:40:50.306Z,57.00
2023-03-23T21:41:53.021Z,58.90
2023-03-23T21:42:55.464Z,61.20
2023-03-23T21:43:58.087Z,52.40
2023-03-23T21:45:02.143Z,51.40
2023-03-23T21:46:08.191Z,54.80
2023-03-23T21:47:12.485Z,55.50
2023-03-23T21:48:15.914Z,51.80
2023-03-23T21:49:18.479Z,58.10
2023-03-23T21:50:22.700Z,52.70
2023-03-23T21:51:28.169Z,45.40
2023-03-23T21:52:31.840Z,53.40
2023-03-23T21:53:36.282Z,54.00
2023-03-23T21:54:40.574Z,48.90
2023-03-23T21:55:45.813Z,51.90
2023-03-23T21:56:48.455Z,53.80
2023-03-23T21:57:52.071Z,55.40
2023-03-23T21:58:56.694Z,58.30
2023-03-23T21:59:58.919Z,54.60
2023-03-23T22:01:02.890Z,55.40
2023-03-23T22:02:06.892Z,49.80
2023-03-23T22:03:09.323Z,55.40
2023-03-23T22:04:11.762Z,55.20
2023-03-23T22:05:15.295Z,58.50
2023-03-23T22:06:22.749Z,61.20
2023-03-23T22:07:28.763Z,58.40
2023-03-23T22:08:33.540Z,55.40
2023-03-23T22:09:36.917Z,53.30
2023-03-23T22:11:00.360Z,58.20
2023-03-23T22:11:49.290Z,54.00
2023-03-23T22:12:53.648Z,54.64
2023-03-23T22:13:59.176Z,58.30
2023-03-23T22:15:02.842Z,53.30
2023-03-23T22:16:09.194Z,53.20
2023-03-23T22:17:12.728Z,59.10
2023-03-23T22:18:16.355Z,56.00
2023-03-23T22:19:20.083Z,50.40
2023-03-23T22:20:22.497Z,48.60
2023-03-23T22:21:26.959Z,55.10
2023-03-23T22:22:29.375Z,54.30
2023-03-23T22:23:31.733Z,56.80
2023-03-23T22:24:35.085Z,55.60
2023-03-23T22:25:37.971Z,58.40
2023-03-23T22:26:41.234Z,54.40
2023-03-23T22:27:45.958Z,57.00
2023-03-23T22:28:50.854Z,53.60
2023-03-23T22:29:53.317Z,58.30
2023-03-23T22:31:03.450Z,50.80
2023-03-23T22:32:06.218Z,51.60
2023-03-23T22:33:08.572Z,52.73
2023-03-23T22:34:11.897Z,55.90
2023-03-23T22:35:14.291Z,56.90
2023-03-23T22:36:18.207Z,54.00
2023-03-23T22:37:21.252Z,52.10
2023-03-23T22:38:24.423Z,56.27
2023-03-23T22:39:26.864Z,56.10
2023-03-23T22:40:31.867Z,49.70
2023-03-23T22:41:37.373Z,47.00
2023-03-23T22:42:40.601Z,54.70
2023-03-23T22:43:43.212Z,50.50
2023-03-23T22:44:46.787Z,65.50
2023-03-23T22:45:54.328Z,60.40
2023-03-23T22:46:56.877Z,62.90
2023-03-23T22:47:59.270Z,65.30
2023-03-23T22:49:01.710Z,58.60
2023-03-23T22:50:09.750Z,55.70
2023-03-23T22:51:14.522Z,58.00
2023-03-23T22:52:17.693Z,61.70
2023-03-23T22:53:21.398Z,57.60
2023-03-23T22:54:23.983Z,56.90
2023-03-23T22:55:26.574Z,57.60
2023-03-23T22:56:31.777Z,58.60
2023-03-23T22:57:35.409Z,56.60
2023-03-23T22:58:37.965Z,58.30
2023-03-23T22:59:40.347Z,54.50
2023-03-23T23:00:52.698Z,56.50
2023-03-23T23:01:55.632Z,48.80
2023-03-23T23:02:58.072Z,54.73
2023-03-23T23:04:02.160Z,52.90
2023-03-23T23:05:05.436Z,55.60
2023-03-23T23:06:10.774Z,49.10
2023-03-23T23:07:13.885Z,41.20
2023-03-23T23:08:18.381Z,57.20
2023-03-23T23:09:21.614Z,50.50
2023-03-23T23:10:24.045Z,47.40
2023-03-23T23:11:26.511Z,37.90
2023-03-23T23:12:31.183Z,42.70
2023-03-23T23:13:33.722Z,53.40
2023-03-23T23:14:37.072Z,51.00
2023-03-23T23:15:45.420Z,50.80
2023-03-23T23:16:48.171Z,54.10
2023-03-23T23:17:50.758Z,57.18
2023-03-23T23:18:54.014Z,51.80
2023-03-23T23:19:56.931Z,47.00
2023-03-23T23:21:01.165Z,50.18
2023-03-23T23:22:16.140Z,52.40
2023-03-23T23:23:10.823Z,54.00
2023-03-23T23:24:13.231Z,50.80
2023-03-23T23:25:15.930Z,54.20
2023-03-23T23:26:19.361Z,53.55
2023-03-23T23:27:21.894Z,58.09
2023-03-23T23:28:24.474Z,42.00
2023-03-23T23:29:27.947Z,52.50
2023-03-23T23:30:31.605Z,46.50
2023-03-23T23:31:34.365Z,54.80
2023-03-23T23:32:37.161Z,50.70
2023-03-23T23:33:39.883Z,44.27
2023-03-23T23:34:42.269Z,49.80
2023-03-23T23:35:44.994Z,48.50
2023-03-23T23:36:48.671Z,49.09
2023-03-23T23:37:51.196Z,47.10
2023-03-23T23:38:53.836Z,52.70
2023-03-23T23:39:56.066Z,56.50
2023-03-23T23:40:58.822Z,56.10
2023-03-23T23:42:01.092Z,67.90
2023-03-23T23:43:04.150Z,66.40
2023-03-23T23:44:06.863Z,62.82
2023-03-23T23:45:10.331Z,63.73
2023-03-23T23:46:13.404Z,56.80
2023-03-23T23:47:16.439Z,51.64
2023-03-23T23:48:18.805Z,45.30
2023-03-23T23:49:22.461Z,50.30
2023-03-23T23:50:25.815Z,39.90
2023-03-23T23:51:29.555Z,48.10
2023-03-23T23:52:31.788Z,45.10
2023-03-23T23:53:34.027Z,42.80
2023-03-23T23:54:37.097Z,46.30
2023-03-23T23:55:43.657Z,49.55
2023-03-23T23:56:53.261Z,41.00
2023-03-23T23:57:56.572Z,37.60
2023-03-23T23:58:58.973Z,47.18
